sensor_id;sensor_type;location;lat;lon;timestamp;pressure;altitude;pressure_sealevel;temperature;humidity
47763;BME280;33526;42.690;23.322;2023-05-24T00:00:03;94854.88;;;13.89;78.46
47763;BME280;33526;42.690;23.322;2023-05-24T00:02:30;94888.34;;;14.13;78.38
47763;BME280;33526;42.690;23.322;2023-05-24T00:04:55;94863.09;;;13.93;78.77
47763;BME280;33526;42.690;23.322;2023-05-24T00:07:25;94884.16;;;14.03;78.85
47763;BME280;33526;42.690;23.322;2023-05-24T00:09:50;94905.47;;;14.15;79.18
47763;BME280;33526;42.690;23.322;2023-05-24T00:12:15;94890.31;;;14.07;79.41
47763;BME280;33526;42.690;23.322;2023-05-24T00:14:41;94898.75;;;14.07;78.31
47763;BME280;33526;42.690;23.322;2023-05-24T00:17:06;94862.00;;;13.85;78.49
47763;BME280;33526;42.690;23.322;2023-05-24T00:19:32;94893.00;;;13.96;77.82
47763;BME280;33526;42.690;23.322;2023-05-24T00:21:58;94885.78;;;13.89;77.08
47763;BME280;33526;42.690;23.322;2023-05-24T00:24:23;94882.47;;;13.91;77.23
47763;BME280;33526;42.690;23.322;2023-05-24T00:26:49;94890.00;;;14.00;78.01
47763;BME280;33526;42.690;23.322;2023-05-24T00:29:14;94865.75;;;13.76;76.22
47763;BME280;33526;42.690;23.322;2023-05-24T00:31:39;94888.94;;;13.50;77.07
47763;BME280;33526;42.690;23.322;2023-05-24T00:34:05;94892.53;;;13.51;77.04
47763;BME280;33526;42.690;23.322;2023-05-24T00:36:30;94876.53;;;13.36;76.93
47763;BME280;33526;42.690;23.322;2023-05-24T00:38:57;94861.19;;;13.17;77.22
47763;BME280;33526;42.690;23.322;2023-05-24T00:41:22;94885.06;;;13.27;77.33
47763;BME280;33526;42.690;23.322;2023-05-24T00:43:48;94872.00;;;13.24;77.24
47763;BME280;33526;42.690;23.322;2023-05-24T00:46:18;94878.59;;;13.21;77.06
47763;BME280;33526;42.690;23.322;2023-05-24T00:48:47;94885.19;;;13.18;77.08
47763;BME280;33526;42.690;23.322;2023-05-24T00:51:13;94865.69;;;13.09;76.78
47763;BME280;33526;42.690;23.322;2023-05-24T00:53:40;94884.00;;;13.25;78.70
47763;BME280;33526;42.690;23.322;2023-05-24T00:56:06;94847.16;;;12.96;80.25
47763;BME280;33526;42.690;23.322;2023-05-24T00:58:32;94889.28;;;13.17;80.72
47763;BME280;33526;42.690;23.322;2023-05-24T01:00:59;94885.19;;;13.18;81.27
47763;BME280;33526;42.690;23.322;2023-05-24T01:03:25;94889.06;;;13.20;80.88
47763;BME280;33526;42.690;23.322;2023-05-24T01:05:55;94852.78;;;12.96;80.75
47763;BME280;33526;42.690;23.322;2023-05-24T01:17:03;94899.13;;;12.92;83.31
47763;BME280;33526;42.690;23.322;2023-05-24T01:19:42;94899.63;;;12.90;83.12
47763;BME280;33526;42.690;23.322;2023-05-24T01:22:23;94895.50;;;12.86;82.78
47763;BME280;33526;42.690;23.322;2023-05-24T01:25:02;94913.94;;;12.92;82.83
47763;BME280;33526;42.690;23.322;2023-05-24T01:27:29;94876.25;;;12.78;82.55
47763;BME280;33526;42.690;23.322;2023-05-24T01:29:56;94908.91;;;12.96;82.09
47763;BME280;33526;42.690;23.322;2023-05-24T01:32:22;94902.16;;;12.88;82.21
47763;BME280;33526;42.690;23.322;2023-05-24T01:34:48;94901.94;;;12.92;82.30
47763;BME280;33526;42.690;23.322;2023-05-24T01:37:13;94908.59;;;12.94;81.93
47763;BME280;33526;42.690;23.322;2023-05-24T01:39:39;94896.53;;;12.88;82.09
47763;BME280;33526;42.690;23.322;2023-05-24T01:42:43;94905.78;;;12.94;81.96
47763;BME280;33526;42.690;23.322;2023-05-24T01:50:16;94897.09;;;12.92;81.97
47763;BME280;33526;42.690;23.322;2023-05-24T01:52:43;94884.47;;;12.82;82.59
47763;BME280;33526;42.690;23.322;2023-05-24T01:55:12;94894.97;;;12.87;82.89
47763;BME280;33526;42.690;23.322;2023-05-24T01:57:40;94873.47;;;12.63;83.21
47763;BME280;33526;42.690;23.322;2023-05-24T02:00:09;94874.66;;;12.57;83.63
47763;BME280;33526;42.690;23.322;2023-05-24T02:02:35;94881.53;;;12.56;84.02
47763;BME280;33526;42.690;23.322;2023-05-24T02:05:00;94895.63;;;12.61;84.20
47763;BME280;33526;42.690;23.322;2023-05-24T02:07:26;94863.09;;;12.34;84.38
47763;BME280;33526;42.690;23.322;2023-05-24T02:09:51;94888.97;;;12.44;84.70
47763;BME280;33526;42.690;23.322;2023-05-24T02:12:17;94854.78;;;12.25;85.37
47763;BME280;33526;42.690;23.322;2023-05-24T02:14:42;94880.38;;;12.48;85.15
47763;BME280;33526;42.690;23.322;2023-05-24T02:17:08;94876.78;;;12.47;84.33
47763;BME280;33526;42.690;23.322;2023-05-24T02:19:33;94888.69;;;12.57;83.95
47763;BME280;33526;42.690;23.322;2023-05-24T02:22:01;94858.72;;;12.33;84.12
47763;BME280;33526;42.690;23.322;2023-05-24T02:24:26;94886.38;;;12.55;84.15
47763;BME280;33526;42.690;23.322;2023-05-24T02:26:52;94858.13;;;12.44;84.42
47763;BME280;33526;42.690;23.322;2023-05-24T02:29:19;94886.38;;;12.55;84.22
47763;BME280;33526;42.690;23.322;2023-05-24T02:31:45;94892.94;;;12.52;84.73
47763;BME280;33526;42.690;23.322;2023-05-24T02:34:11;94881.56;;;12.41;84.74
47763;BME280;33526;42.690;23.322;2023-05-24T02:36:36;94882.97;;;12.51;84.88
47763;BME280;33526;42.690;23.322;2023-05-24T02:39:02;94880.19;;;12.36;84.98
47763;BME280;33526;42.690;23.322;2023-05-24T02:41:28;94882.50;;;12.38;84.61
47763;BME280;33526;42.690;23.322;2023-05-24T02:43:53;94854.13;;;12.15;84.82
47763;BME280;33526;42.690;23.322;2023-05-24T02:46:19;94877.50;;;12.27;84.55
47763;BME280;33526;42.690;23.322;2023-05-24T02:48:44;94899.72;;;12.31;84.78
47763;BME280;33526;42.690;23.322;2023-05-24T02:51:10;94878.28;;;12.13;85.00
47763;BME280;33526;42.690;23.322;2023-05-24T02:53:35;94891.63;;;12.18;85.44
47763;BME280;33526;42.690;23.322;2023-05-24T02:56:00;94859.34;;;11.93;85.95
47763;BME280;33526;42.690;23.322;2023-05-24T02:58:26;94869.78;;;12.07;86.01
47763;BME280;33526;42.690;23.322;2023-05-24T03:00:54;94901.47;;;12.28;85.64
47763;BME280;33526;42.690;23.322;2023-05-24T03:03:20;94894.88;;;12.31;85.45
47763;BME280;33526;42.690;23.322;2023-05-24T03:05:45;94853.75;;;12.08;85.16
47763;BME280;33526;42.690;23.322;2023-05-24T03:08:10;94863.69;;;12.23;84.83
47763;BME280;33526;42.690;23.322;2023-05-24T03:10:36;94899.91;;;12.42;84.86
47763;BME280;33526;42.690;23.322;2023-05-24T03:13:01;94872.78;;;12.18;85.00
47763;BME280;33526;42.690;23.322;2023-05-24T03:15:27;94877.13;;;12.19;84.65
47763;BME280;33526;42.690;23.322;2023-05-24T03:17:52;94886.28;;;12.35;84.58
47763;BME280;33526;42.690;23.322;2023-05-24T03:20:17;94891.88;;;12.35;84.84
47763;BME280;33526;42.690;23.322;2023-05-24T03:22:45;94914.81;;;12.48;84.59
47763;BME280;33526;42.690;23.322;2023-05-24T03:25:10;94901.19;;;12.41;84.45
47763;BME280;33526;42.690;23.322;2023-05-24T03:27:35;94877.03;;;12.29;84.56
47763;BME280;33526;42.690;23.322;2023-05-24T03:30:01;94922.13;;;12.60;84.29
47763;BME280;33526;42.690;23.322;2023-05-24T03:32:27;94907.25;;;12.54;83.25
47763;BME280;33526;42.690;23.322;2023-05-24T03:34:52;94910.31;;;12.56;83.47
47763;BME280;33526;42.690;23.322;2023-05-24T03:37:18;94904.72;;;12.56;83.22
47763;BME280;33526;42.690;23.322;2023-05-24T03:39:43;94926.94;;;12.75;83.66
47763;BME280;33526;42.690;23.322;2023-05-24T03:42:09;94914.56;;;12.67;83.21
47763;BME280;33526;42.690;23.322;2023-05-24T03:44:34;94913.72;;;12.60;83.38
47763;BME280;33526;42.690;23.322;2023-05-24T03:46:59;94912.81;;;12.69;82.90
47763;BME280;33526;42.690;23.322;2023-05-24T03:49:25;94933.50;;;12.87;82.93
47763;BME280;33526;42.690;23.322;2023-05-24T03:51:51;94910.13;;;12.75;82.70
47763;BME280;33526;42.690;23.322;2023-05-24T03:54:16;94913.09;;;12.86;82.79
47763;BME280;33526;42.690;23.322;2023-05-24T03:56:42;94925.34;;;12.89;82.49
47763;BME280;33526;42.690;23.322;2023-05-24T03:59:08;94910.41;;;12.77;82.70
47763;BME280;33526;42.690;23.322;2023-05-24T04:01:33;94863.84;;;12.85;81.55
47763;BME280;33526;42.690;23.322;2023-05-24T04:04:01;94917.94;;;13.62;79.78
47763;BME280;33526;42.690;23.322;2023-05-24T04:06:26;94896.16;;;13.77;77.56
47763;BME280;33526;42.690;23.322;2023-05-24T04:08:54;94853.53;;;14.11;74.63
47763;BME280;33526;42.690;23.322;2023-05-24T04:11:21;94923.06;;;14.68;72.71
47763;BME280;33526;42.690;23.322;2023-05-24T04:13:47;94903.84;;;14.99;71.73
47763;BME280;33526;42.690;23.322;2023-05-24T04:16:12;94921.16;;;15.78;69.87
47763;BME280;33526;42.690;23.322;2023-05-24T04:18:38;94931.72;;;15.94;67.89
47763;BME280;33526;42.690;23.322;2023-05-24T04:21:03;94930.00;;;16.36;66.16
47763;BME280;33526;42.690;23.322;2023-05-24T04:23:29;94929.03;;;16.85;64.56
47763;BME280;33526;42.690;23.322;2023-05-24T04:25:54;94937.94;;;17.45;62.18
47763;BME280;33526;42.690;23.322;2023-05-24T04:28:20;94927.59;;;17.65;60.95
47763;BME280;33526;42.690;23.322;2023-05-24T04:30:46;94914.69;;;17.86;59.90
47763;BME280;33526;42.690;23.322;2023-05-24T04:33:12;94931.75;;;18.22;59.14
47763;BME280;33526;42.690;23.322;2023-05-24T04:35:39;94933.75;;;18.63;57.44
47763;BME280;33526;42.690;23.322;2023-05-24T04:38:06;94918.22;;;18.81;56.08
47763;BME280;33526;42.690;23.322;2023-05-24T04:40:31;94899.16;;;18.46;56.69
47763;BME280;33526;42.690;23.322;2023-05-24T04:42:57;94937.31;;;18.33;57.26
47763;BME280;33526;42.690;23.322;2023-05-24T04:45:23;94944.94;;;18.50;56.96
47763;BME280;33526;42.690;23.322;2023-05-24T04:47:49;94905.88;;;18.01;57.87
47763;BME280;33526;42.690;23.322;2023-05-24T04:50:14;94937.88;;;18.26;57.50
47763;BME280;33526;42.690;23.322;2023-05-24T04:52:40;94934.63;;;18.52;56.90
47763;BME280;33526;42.690;23.322;2023-05-24T04:55:05;94928.78;;;18.39;56.56
47763;BME280;33526;42.690;23.322;2023-05-24T04:57:31;94954.69;;;18.90;55.88
47763;BME280;33526;42.690;23.322;2023-05-24T04:59:57;94955.66;;;19.29;54.41
47763;BME280;33526;42.690;23.322;2023-05-24T05:02:22;94954.19;;;19.47;53.58
47763;BME280;33526;42.690;23.322;2023-05-24T05:04:50;94934.41;;;19.41;53.82
47763;BME280;33526;42.690;23.322;2023-05-24T05:07:16;94964.41;;;19.80;53.25
47763;BME280;33526;42.690;23.322;2023-05-24T05:09:42;94959.88;;;19.17;54.63
47763;BME280;33526;42.690;23.322;2023-05-24T05:12:07;94956.09;;;19.08;54.80
47763;BME280;33526;42.690;23.322;2023-05-24T05:14:34;94945.25;;;19.62;53.27
47763;BME280;33526;42.690;23.322;2023-05-24T05:16:59;94929.91;;;19.27;53.23
47763;BME280;33526;42.690;23.322;2023-05-24T05:19:25;94946.88;;;19.33;53.72
47763;BME280;33526;42.690;23.322;2023-05-24T05:21:50;94951.88;;;19.45;52.90
47763;BME280;33526;42.690;23.322;2023-05-24T05:24:17;94963.75;;;19.68;52.97
47763;BME280;33526;42.690;23.322;2023-05-24T05:26:42;94962.91;;;19.79;52.90
47763;BME280;33526;42.690;23.322;2023-05-24T05:29:08;94956.25;;;19.22;53.37
47763;BME280;33526;42.690;23.322;2023-05-24T05:31:33;94905.25;;;18.91;54.11
47763;BME280;33526;42.690;23.322;2023-05-24T05:33:59;94919.19;;;18.89;53.82
47763;BME280;33526;42.690;23.322;2023-05-24T05:36:24;94967.41;;;19.14;53.90
47763;BME280;33526;42.690;23.322;2023-05-24T05:38:50;94973.03;;;18.84;55.48
47763;BME280;33526;42.690;23.322;2023-05-24T05:41:16;94958.31;;;19.21;54.30
47763;BME280;33526;42.690;23.322;2023-05-24T05:43:41;94922.00;;;19.44;53.44
47763;BME280;33526;42.690;23.322;2023-05-24T05:46:06;94933.00;;;19.78;51.86
47763;BME280;33526;42.690;23.322;2023-05-24T05:48:32;94944.38;;;20.16;50.60
47763;BME280;33526;42.690;23.322;2023-05-24T05:50:58;94971.34;;;19.85;51.27
47763;BME280;33526;42.690;23.322;2023-05-24T05:53:24;94977.97;;;19.38;52.98
47763;BME280;33526;42.690;23.322;2023-05-24T05:55:49;94918.78;;;19.04;53.51
47763;BME280;33526;42.690;23.322;2023-05-24T05:58:15;94962.78;;;19.11;53.60
47763;BME280;33526;42.690;23.322;2023-05-24T06:00:40;94970.78;;;19.62;52.47
47763;BME280;33526;42.690;23.322;2023-05-24T06:03:06;94976.69;;;19.39;53.42
47763;BME280;33526;42.690;23.322;2023-05-24T06:05:31;94969.59;;;19.27;54.18
47763;BME280;33526;42.690;23.322;2023-05-24T06:07:57;94974.03;;;19.96;52.27
47763;BME280;33526;42.690;23.322;2023-05-24T06:10:22;94971.13;;;20.02;52.36
47763;BME280;33526;42.690;23.322;2023-05-24T06:12:47;94966.78;;;20.01;51.98
47763;BME280;33526;42.690;23.322;2023-05-24T06:15:13;94966.56;;;19.74;52.52
47763;BME280;33526;42.690;23.322;2023-05-24T06:17:38;94973.66;;;20.05;50.84
47763;BME280;33526;42.690;23.322;2023-05-24T06:20:04;94979.31;;;19.86;52.12
47763;BME280;33526;42.690;23.322;2023-05-24T06:22:36;94979.31;;;19.86;52.35
47763;BME280;33526;42.690;23.322;2023-05-24T06:25:03;94985.09;;;19.75;51.82
47763;BME280;33526;42.690;23.322;2023-05-24T06:27:28;94952.69;;;19.16;53.45
47763;BME280;33526;42.690;23.322;2023-05-24T06:29:54;94974.97;;;19.00;54.24
47763;BME280;33526;42.690;23.322;2023-05-24T06:32:20;94973.66;;;19.01;54.72
47763;BME280;33526;42.690;23.322;2023-05-24T06:34:45;94955.94;;;18.95;54.94
47763;BME280;33526;42.690;23.322;2023-05-24T06:37:10;94949.22;;;18.62;55.22
47763;BME280;33526;42.690;23.322;2023-05-24T06:39:39;94971.69;;;18.90;55.18
47763;BME280;33526;42.690;23.322;2023-05-24T06:42:05;94976.53;;;18.96;55.57
47763;BME280;33526;42.690;23.322;2023-05-24T06:44:31;94968.69;;;18.77;55.23
47763;BME280;33526;42.690;23.322;2023-05-24T06:46:59;94971.34;;;18.64;55.40
47763;BME280;33526;42.690;23.322;2023-05-24T06:49:26;94959.47;;;18.29;57.01
47763;BME280;33526;42.690;23.322;2023-05-24T06:51:51;94937.44;;;18.11;57.44
47763;BME280;33526;42.690;23.322;2023-05-24T06:54:17;94972.03;;;18.34;56.82
47763;BME280;33526;42.690;23.322;2023-05-24T06:56:43;94954.53;;;18.36;56.70
47763;BME280;33526;42.690;23.322;2023-05-24T06:59:09;94937.59;;;18.30;56.37
47763;BME280;33526;42.690;23.322;2023-05-24T07:01:35;94937.25;;;18.45;56.75
47763;BME280;33526;42.690;23.322;2023-05-24T07:04:04;94938.47;;;18.55;56.32
47763;BME280;33526;42.690;23.322;2023-05-24T07:06:29;94957.41;;;18.71;55.69
47763;BME280;33526;42.690;23.322;2023-05-24T07:08:57;94960.22;;;18.71;55.38
47763;BME280;33526;42.690;23.322;2023-05-24T07:11:22;94951.34;;;18.92;55.67
47763;BME280;33526;42.690;23.322;2023-05-24T07:13:48;94945.66;;;18.92;54.35
47763;BME280;33526;42.690;23.322;2023-05-24T07:16:13;94965.16;;;19.01;54.49
47763;BME280;33526;42.690;23.322;2023-05-24T07:18:39;94941.50;;;18.63;55.40
47763;BME280;33526;42.690;23.322;2023-05-24T07:21:05;94956.94;;;19.03;55.18
47763;BME280;33526;42.690;23.322;2023-05-24T07:23:31;94957.41;;;19.07;54.70
47763;BME280;33526;42.690;23.322;2023-05-24T07:25:56;94964.78;;;19.16;54.62
47763;BME280;33526;42.690;23.322;2023-05-24T07:28:22;94955.78;;;19.18;54.31
47763;BME280;33526;42.690;23.322;2023-05-24T07:30:47;94973.44;;;18.99;55.06
47763;BME280;33526;42.690;23.322;2023-05-24T07:33:13;94949.94;;;19.04;54.42
47763;BME280;33526;42.690;23.322;2023-05-24T07:35:39;94958.31;;;19.46;54.06
47763;BME280;33526;42.690;23.322;2023-05-24T07:38:04;94956.72;;;19.51;54.10
47763;BME280;33526;42.690;23.322;2023-05-24T07:40:30;94966.53;;;19.49;53.64
47763;BME280;33526;42.690;23.322;2023-05-24T07:42:55;94909.06;;;19.24;53.89
47763;BME280;33526;42.690;23.322;2023-05-24T07:45:20;94971.63;;;19.81;52.47
47763;BME280;33526;42.690;23.322;2023-05-24T07:47:47;94950.84;;;19.73;52.79
47763;BME280;33526;42.690;23.322;2023-05-24T07:50:12;94953.41;;;19.96;51.73
47763;BME280;33526;42.690;23.322;2023-05-24T07:52:37;94965.25;;;20.38;50.82
47763;BME280;33526;42.690;23.322;2023-05-24T07:55:04;94967.16;;;20.11;51.47
47763;BME280;33526;42.690;23.322;2023-05-24T07:57:30;94961.28;;;20.28;49.86
47763;BME280;33526;42.690;23.322;2023-05-24T07:59:55;94950.06;;;20.35;49.70
47763;BME280;33526;42.690;23.322;2023-05-24T08:02:21;94960.09;;;20.55;48.93
47763;BME280;33526;42.690;23.322;2023-05-24T08:04:46;94947.53;;;20.32;47.78
47763;BME280;33526;42.690;23.322;2023-05-24T08:07:12;94961.75;;;20.70;47.62
47763;BME280;33526;42.690;23.322;2023-05-24T08:09:38;94952.28;;;20.80;48.45
47763;BME280;33526;42.690;23.322;2023-05-24T08:12:05;94958.34;;;20.71;49.02
47763;BME280;33526;42.690;23.322;2023-05-24T08:14:31;94949.69;;;20.44;49.12
47763;BME280;33526;42.690;23.322;2023-05-24T08:16:57;94906.25;;;20.50;48.22
47763;BME280;33526;42.690;23.322;2023-05-24T08:19:25;94954.63;;;20.95;47.37
47763;BME280;33526;42.690;23.322;2023-05-24T08:21:51;94937.31;;;20.80;46.65
47763;BME280;33526;42.690;23.322;2023-05-24T08:24:17;94950.66;;;20.85;46.44
47763;BME280;33526;42.690;23.322;2023-05-24T08:26:42;94945.69;;;21.05;46.75
47763;BME280;33526;42.690;23.322;2023-05-24T08:29:09;94936.84;;;21.08;44.94
47763;BME280;33526;42.690;23.322;2023-05-24T08:31:35;94935.72;;;20.98;45.06
47763;BME280;33526;42.690;23.322;2023-05-24T08:34:00;94935.47;;;21.28;43.27
47763;BME280;33526;42.690;23.322;2023-05-24T08:36:26;94937.25;;;21.45;42.94
47763;BME280;33526;42.690;23.322;2023-05-24T08:38:52;94944.69;;;21.48;40.39
47763;BME280;33526;42.690;23.322;2023-05-24T08:41:17;94929.84;;;21.55;40.92
47763;BME280;33526;42.690;23.322;2023-05-24T08:43:45;94940.78;;;21.77;40.20
47763;BME280;33526;42.690;23.322;2023-05-24T08:46:11;94925.25;;;21.79;39.54
47763;BME280;33526;42.690;23.322;2023-05-24T08:48:44;94952.38;;;22.06;38.55
47763;BME280;33526;42.690;23.322;2023-05-24T08:51:12;94931.25;;;21.75;38.42
47763;BME280;33526;42.690;23.322;2023-05-24T08:53:38;94932.03;;;21.75;38.09
47763;BME280;33526;42.690;23.322;2023-05-24T08:56:06;94933.56;;;22.03;38.46
47763;BME280;33526;42.690;23.322;2023-05-24T08:58:33;94945.25;;;22.26;38.38
47763;BME280;33526;42.690;23.322;2023-05-24T09:00:58;94929.75;;;22.48;38.98
47763;BME280;33526;42.690;23.322;2023-05-24T09:03:24;94944.81;;;22.70;37.74
47763;BME280;33526;42.690;23.322;2023-05-24T09:05:51;94915.53;;;22.48;37.95
47763;BME280;33526;42.690;23.322;2023-05-24T09:08:17;94935.66;;;22.50;38.07
47763;BME280;33526;42.690;23.322;2023-05-24T09:10:45;94937.38;;;22.67;37.86
47763;BME280;33526;42.690;23.322;2023-05-24T09:13:14;94940.38;;;22.82;37.00
47763;BME280;33526;42.690;23.322;2023-05-24T09:15:40;94939.53;;;22.74;36.63
47763;BME280;33526;42.690;23.322;2023-05-24T09:18:05;94939.50;;;22.87;36.63
47763;BME280;33526;42.690;23.322;2023-05-24T09:20:31;94945.19;;;22.87;35.95
47763;BME280;33526;42.690;23.322;2023-05-24T09:22:57;94931.06;;;22.82;36.57
47763;BME280;33526;42.690;23.322;2023-05-24T09:25:23;94939.34;;;22.93;36.43
47763;BME280;33526;42.690;23.322;2023-05-24T09:27:52;94929.84;;;22.90;36.81
47763;BME280;33526;42.690;23.322;2023-05-24T09:30:19;94927.81;;;22.99;35.28
47763;BME280;33526;42.690;23.322;2023-05-24T09:32:57;94935.56;;;23.12;35.06
47763;BME280;33526;42.690;23.322;2023-05-24T09:35:24;94918.03;;;23.28;35.75
47763;BME280;33526;42.690;23.322;2023-05-24T09:37:56;94925.22;;;23.51;34.57
47763;BME280;33526;42.690;23.322;2023-05-24T09:40:23;94919.56;;;23.58;34.70
47763;BME280;33526;42.690;23.322;2023-05-24T09:43:03;94927.13;;;23.48;34.76
47763;BME280;33526;42.690;23.322;2023-05-24T09:45:29;94917.91;;;23.92;34.52
47763;BME280;33526;42.690;23.322;2023-05-24T09:47:54;94903.69;;;23.71;33.79
47763;BME280;33526;42.690;23.322;2023-05-24T09:50:20;94901.88;;;23.81;33.58
47763;BME280;33526;42.690;23.322;2023-05-24T09:52:46;94912.94;;;23.84;33.16
47763;BME280;33526;42.690;23.322;2023-05-24T09:55:16;94915.09;;;23.71;33.57
47763;BME280;33526;42.690;23.322;2023-05-24T09:58:00;94916.28;;;23.75;33.27
47763;BME280;33526;42.690;23.322;2023-05-24T10:00:32;94923.25;;;23.95;32.42
47763;BME280;33526;42.690;23.322;2023-05-24T10:03:04;94917.94;;;23.99;32.41
47763;BME280;33526;42.690;23.322;2023-05-24T10:05:33;94918.28;;;23.88;31.70
47763;BME280;33526;42.690;23.322;2023-05-24T10:08:00;94916.22;;;23.96;30.98
47763;BME280;33526;42.690;23.322;2023-05-24T10:10:30;94913.09;;;24.15;31.36
47763;BME280;33526;42.690;23.322;2023-05-24T10:12:56;94896.22;;;23.96;30.81
47763;BME280;33526;42.690;23.322;2023-05-24T10:15:22;94895.31;;;24.01;31.75
47763;BME280;33526;42.690;23.322;2023-05-24T10:17:50;94888.47;;;24.04;32.10
47763;BME280;33526;42.690;23.322;2023-05-24T10:20:15;94909.66;;;24.17;32.78
47763;BME280;33526;42.690;23.322;2023-05-24T10:22:45;94892.56;;;24.32;31.88
47763;BME280;33526;42.690;23.322;2023-05-24T10:25:20;94891.66;;;24.45;32.50
47763;BME280;33526;42.690;23.322;2023-05-24T10:27:48;94892.69;;;24.63;31.59
47763;BME280;33526;42.690;23.322;2023-05-24T10:32:52;94899.09;;;24.40;32.32
47763;BME280;33526;42.690;23.322;2023-05-24T10:35:20;94885.00;;;24.35;32.38
47763;BME280;33526;42.690;23.322;2023-05-24T10:37:47;94886.03;;;24.60;32.13
47763;BME280;33526;42.690;23.322;2023-05-24T10:40:17;94889.19;;;24.41;31.55
47763;BME280;33526;42.690;23.322;2023-05-24T10:42:45;94884.56;;;24.31;30.35
47763;BME280;33526;42.690;23.322;2023-05-24T10:47:51;94880.03;;;23.91;32.63
47763;BME280;33526;42.690;23.322;2023-05-24T10:50:19;94869.81;;;24.03;31.73
47763;BME280;33526;42.690;23.322;2023-05-24T10:52:45;94853.03;;;24.00;31.97
47763;BME280;33526;42.690;23.322;2023-05-24T10:55:10;94870.00;;;24.05;32.19
47763;BME280;33526;42.690;23.322;2023-05-24T10:57:37;94860.88;;;24.07;31.66
47763;BME280;33526;42.690;23.322;2023-05-24T11:03:12;94870.06;;;24.21;31.58
47763;BME280;33526;42.690;23.322;2023-05-24T11:08:13;94866.19;;;24.03;31.83
47763;BME280;33526;42.690;23.322;2023-05-24T11:10:39;94841.16;;;24.24;32.24
47763;BME280;33526;42.690;23.322;2023-05-24T11:13:08;94860.50;;;24.55;31.77
47763;BME280;33526;42.690;23.322;2023-05-24T11:15:35;94848.06;;;24.45;30.83
47763;BME280;33526;42.690;23.322;2023-05-24T11:20:42;94855.00;;;24.95;31.67
47763;BME280;33526;42.690;23.322;2023-05-24T11:23:13;94849.69;;;24.99;31.22
47763;BME280;33526;42.690;23.322;2023-05-24T11:25:39;94854.63;;;24.91;30.89
47763;BME280;33526;42.690;23.322;2023-05-24T11:28:09;94865.69;;;24.95;31.65
47763;BME280;33526;42.690;23.322;2023-05-24T11:30:41;94838.25;;;24.92;31.29
47763;BME280;33526;42.690;23.322;2023-05-24T11:33:21;94857.69;;;24.93;30.78
47763;BME280;33526;42.690;23.322;2023-05-24T11:35:51;94851.97;;;25.01;31.09
47763;BME280;33526;42.690;23.322;2023-05-24T11:38:18;94824.72;;;25.08;31.46
47763;BME280;33526;42.690;23.322;2023-05-24T11:40:46;94833.66;;;25.04;30.54
47763;BME280;33526;42.690;23.322;2023-05-24T11:43:12;94838.22;;;25.23;30.14
47763;BME280;33526;42.690;23.322;2023-05-24T11:45:40;94833.69;;;25.19;30.55
47763;BME280;33526;42.690;23.322;2023-05-24T11:48:07;94811.56;;;25.28;30.96
47763;BME280;33526;42.690;23.322;2023-05-24T11:50:40;94810.97;;;25.37;30.17
47763;BME280;33526;42.690;23.322;2023-05-24T11:53:13;94814.19;;;25.56;30.70
47763;BME280;33526;42.690;23.322;2023-05-24T11:55:39;94823.31;;;25.70;30.45
47763;BME280;33526;42.690;23.322;2023-05-24T11:58:26;94813.00;;;25.75;30.07
47763;BME280;33526;42.690;23.322;2023-05-24T12:00:54;94826.44;;;25.11;29.53
47763;BME280;33526;42.690;23.322;2023-05-24T12:03:19;94806.59;;;25.21;29.56
47763;BME280;33526;42.690;23.322;2023-05-24T12:05:45;94810.78;;;25.19;29.95
47763;BME280;33526;42.690;23.322;2023-05-24T12:08:12;94820.13;;;25.20;30.64
47763;BME280;33526;42.690;23.322;2023-05-24T12:10:40;94817.84;;;25.34;29.79
47763;BME280;33526;42.690;23.322;2023-05-24T12:13:18;94802.78;;;25.41;29.16
47763;BME280;33526;42.690;23.322;2023-05-24T12:15:44;94814.22;;;25.33;29.46
47763;BME280;33526;42.690;23.322;2023-05-24T12:18:22;94814.22;;;25.41;29.69
47763;BME280;33526;42.690;23.322;2023-05-24T12:20:49;94807.91;;;25.50;30.04
47763;BME280;33526;42.690;23.322;2023-05-24T12:23:15;94800.06;;;25.59;30.30
47763;BME280;33526;42.690;23.322;2023-05-24T12:25:41;94795.38;;;25.94;30.31
47763;BME280;33526;42.690;23.322;2023-05-24T12:28:08;94794.22;;;25.97;29.62
47763;BME280;33526;42.690;23.322;2023-05-24T12:30:36;94790.63;;;25.81;30.58
47763;BME280;33526;42.690;23.322;2023-05-24T12:33:02;94799.00;;;25.94;29.70
47763;BME280;33526;42.690;23.322;2023-05-24T12:35:27;94800.72;;;25.98;30.49
47763;BME280;33526;42.690;23.322;2023-05-24T12:37:57;94791.91;;;26.03;30.07
47763;BME280;33526;42.690;23.322;2023-05-24T12:40:24;94780.63;;;25.49;29.81
47763;BME280;33526;42.690;23.322;2023-05-24T12:42:52;94791.53;;;25.20;30.26
47763;BME280;33526;42.690;23.322;2023-05-24T12:45:18;94796.47;;;25.35;29.83
47763;BME280;33526;42.690;23.322;2023-05-24T12:47:51;94780.66;;;25.34;30.18
47763;BME280;33526;42.690;23.322;2023-05-24T12:50:18;94791.66;;;25.53;29.60
47763;BME280;33526;42.690;23.322;2023-05-24T12:52:44;94783.75;;;25.05;30.04
47763;BME280;33526;42.690;23.322;2023-05-24T12:55:15;94776.47;;;25.35;30.29
47763;BME280;33526;42.690;23.322;2023-05-24T12:57:42;94771.50;;;25.43;30.21
47763;BME280;33526;42.690;23.322;2023-05-24T13:00:09;94777.53;;;25.55;29.92
47763;BME280;33526;42.690;23.322;2023-05-24T13:02:39;94774.91;;;25.49;30.24
47763;BME280;33526;42.690;23.322;2023-05-24T13:05:06;94770.06;;;25.75;30.10
47763;BME280;33526;42.690;23.322;2023-05-24T13:07:33;94747.88;;;25.19;30.22
47763;BME280;33526;42.690;23.322;2023-05-24T13:09:58;94768.47;;;25.82;30.19
47763;BME280;33526;42.690;23.322;2023-05-24T13:12:24;94763.13;;;26.26;29.64
47763;BME280;33526;42.690;23.322;2023-05-24T13:14:50;94768.31;;;26.53;29.91